sensor_id;sensor_type;location;lat;lon;timestamp;temperature;humidity
67192;HTU21D;54120;53.504;49.426;2023-03-23T00:01:02;1.26;92.07
67192;HTU21D;54120;53.504;49.426;2023-03-23T00:03:28;1.26;92.34
67192;HTU21D;54120;53.504;49.426;2023-03-23T00:06:00;1.23;92.08
67192;HTU21D;54120;53.504;49.426;2023-03-23T00:08:35;1.07;91.72
67192;HTU21D;54120;53.504;49.426;2023-03-23T00:11:20;0.97;91.71
67192;HTU21D;54120;53.504;49.426;2023-03-23T00:13:48;0.90;92.84
67192;HTU21D;54120;53.504;49.426;2023-03-23T00:16:23;0.90;93.25
67192;HTU21D;54120;53.504;49.426;2023-03-23T00:19:10;0.94;93.64
67192;HTU21D;54120;53.504;49.426;2023-03-23T00:21:40;0.98;92.88
67192;HTU21D;54120;53.504;49.426;2023-03-23T00:24:11;0.95;92.27
67192;HTU21D;54120;53.504;49.426;2023-03-23T00:26:40;0.83;92.10
67192;HTU21D;54120;53.504;49.426;2023-03-23T00:31:40;0.74;93.33
67192;HTU21D;54120;53.504;49.426;2023-03-23T00:34:06;0.73;93.73
67192;HTU21D;54120;53.504;49.426;2023-03-23T00:36:34;0.81;93.91
67192;HTU21D;54120;53.504;49.426;2023-03-23T00:39:02;0.89;93.72
67192;HTU21D;54120;53.504;49.426;2023-03-23T00:41:30;0.76;92.89
67192;HTU21D;54120;53.504;49.426;2023-03-23T00:43:57;0.59;93.27
67192;HTU21D;54120;53.504;49.426;2023-03-23T00:46:26;0.55;93.57
67192;HTU21D;54120;53.504;49.426;2023-03-23T00:48:55;0.57;93.81
67192;HTU21D;54120;53.504;49.426;2023-03-23T00:51:23;0.39;94.15
67192;HTU21D;54120;53.504;49.426;2023-03-23T00:53:50;0.44;95.03
67192;HTU21D;54120;53.504;49.426;2023-03-23T00:56:17;0.51;95.40
67192;HTU21D;54120;53.504;49.426;2023-03-23T00:58:43;0.37;94.54
67192;HTU21D;54120;53.504;49.426;2023-03-23T01:01:09;0.23;94.42
67192;HTU21D;54120;53.504;49.426;2023-03-23T01:03:36;0.31;95.15
67192;HTU21D;54120;53.504;49.426;2023-03-23T01:06:10;0.40;95.03
67192;HTU21D;54120;53.504;49.426;2023-03-23T01:08:42;0.40;94.72
67192;HTU21D;54120;53.504;49.426;2023-03-23T01:11:14;0.38;95.66
67192;HTU21D;54120;53.504;49.426;2023-03-23T01:13:42;0.50;96.29
67192;HTU21D;54120;53.504;49.426;2023-03-23T01:16:09;0.52;95.38
67192;HTU21D;54120;53.504;49.426;2023-03-23T01:18:37;0.40;94.67
67192;HTU21D;54120;53.504;49.426;2023-03-23T01:21:08;0.21;94.33
67192;HTU21D;54120;53.504;49.426;2023-03-23T01:23:37;-0.06;94.36
67192;HTU21D;54120;53.504;49.426;2023-03-23T01:26:09;-0.16;94.89
67192;HTU21D;54120;53.504;49.426;2023-03-23T01:28:36;-0.13;95.75
67192;HTU21D;54120;53.504;49.426;2023-03-23T01:31:08;-0.07;95.89
67192;HTU21D;54120;53.504;49.426;2023-03-23T01:33:35;0.05;96.26
67192;HTU21D;54120;53.504;49.426;2023-03-23T01:36:07;0.22;96.51
67192;HTU21D;54120;53.504;49.426;2023-03-23T01:38:34;0.35;96.56
67192;HTU21D;54120;53.504;49.426;2023-03-23T01:41:02;0.23;95.44
67192;HTU21D;54120;53.504;49.426;2023-03-23T01:43:28;0.06;94.93
67192;HTU21D;54120;53.504;49.426;2023-03-23T01:45:55;0.02;95.62
67192;HTU21D;54120;53.504;49.426;2023-03-23T01:48:31;0.02;96.36
67192;HTU21D;54120;53.504;49.426;2023-03-23T01:51:06;0.06;96.98
67192;HTU21D;54120;53.504;49.426;2023-03-23T01:53:43;0.01;96.84
67192;HTU21D;54120;53.504;49.426;2023-03-23T01:56:11;-0.00;97.21
67192;HTU21D;54120;53.504;49.426;2023-03-23T01:58:40;0.01;97.65
67192;HTU21D;54120;53.504;49.426;2023-03-23T02:01:10;0.10;98.44
67192;HTU21D;54120;53.504;49.426;2023-03-23T02:03:39;0.12;98.82
67192;HTU21D;54120;53.504;49.426;2023-03-23T02:06:07;0.14;99.28
67192;HTU21D;54120;53.504;49.426;2023-03-23T02:08:35;0.16;99.61
67192;HTU21D;54120;53.504;49.426;2023-03-23T02:11:01;0.24;99.99
67192;HTU21D;54120;53.504;49.426;2023-03-23T02:13:28;0.30;100.29
67192;HTU21D;54120;53.504;49.426;2023-03-23T02:16:05;0.42;100.80
67192;HTU21D;54120;53.504;49.426;2023-03-23T02:27:29;0.72;100.21
67192;HTU21D;54120;53.504;49.426;2023-03-23T02:30:37;0.89;100.03
67192;HTU21D;54120;53.504;49.426;2023-03-23T02:36:10;1.09;99.06
67192;HTU21D;54120;53.504;49.426;2023-03-23T02:41:24;1.36;98.50
67192;HTU21D;54120;53.504;49.426;2023-03-23T02:43:52;1.46;98.33
67192;HTU21D;54120;53.504;49.426;2023-03-23T02:46:20;1.57;98.11
67192;HTU21D;54120;53.504;49.426;2023-03-23T02:48:49;1.72;97.74
67192;HTU21D;54120;53.504;49.426;2023-03-23T02:51:19;1.91;96.80
67192;HTU21D;54120;53.504;49.426;2023-03-23T02:53:48;1.85;94.39
67192;HTU21D;54120;53.504;49.426;2023-03-23T02:56:16;1.90;94.91
67192;HTU21D;54120;53.504;49.426;2023-03-23T02:58:43;2.10;95.04
67192;HTU21D;54120;53.504;49.426;2023-03-23T03:04:11;2.40;93.50
67192;HTU21D;54120;53.504;49.426;2023-03-23T03:09:50;2.49;89.74
67192;HTU21D;54120;53.504;49.426;2023-03-23T03:20:32;2.86;88.29
67192;HTU21D;54120;53.504;49.426;2023-03-23T03:23:02;2.94;88.12
67192;HTU21D;54120;53.504;49.426;2023-03-23T03:25:29;3.10;88.76
67192;HTU21D;54120;53.504;49.426;2023-03-23T03:27:56;3.14;86.34
67192;HTU21D;54120;53.504;49.426;2023-03-23T03:30:26;3.01;86.00
67192;HTU21D;54120;53.504;49.426;2023-03-23T03:32:56;3.10;86.65
67192;HTU21D;54120;53.504;49.426;2023-03-23T03:35:23;3.29;86.48
67192;HTU21D;54120;53.504;49.426;2023-03-23T03:37:50;3.38;85.74
67192;HTU21D;54120;53.504;49.426;2023-03-23T03:40:20;3.34;85.59
67192;HTU21D;54120;53.504;49.426;2023-03-23T03:42:46;3.41;86.47
67192;HTU21D;54120;53.504;49.426;2023-03-23T03:45:17;3.62;85.66
67192;HTU21D;54120;53.504;49.426;2023-03-23T03:47:44;3.75;84.58
67192;HTU21D;54120;53.504;49.426;2023-03-23T03:50:11;3.87;84.29
67192;HTU21D;54120;53.504;49.426;2023-03-23T03:52:37;4.03;83.97
67192;HTU21D;54120;53.504;49.426;2023-03-23T03:55:05;4.09;83.20
67192;HTU21D;54120;53.504;49.426;2023-03-23T03:57:33;4.03;82.93
67192;HTU21D;54120;53.504;49.426;2023-03-23T04:00:00;4.05;82.87
67192;HTU21D;54120;53.504;49.426;2023-03-23T04:02:26;3.90;83.07
67192;HTU21D;54120;53.504;49.426;2023-03-23T04:04:52;4.01;83.85
67192;HTU21D;54120;53.504;49.426;2023-03-23T04:07:19;4.19;83.17
67192;HTU21D;54120;53.504;49.426;2023-03-23T04:09:47;4.28;83.07
67192;HTU21D;54120;53.504;49.426;2023-03-23T04:12:14;4.48;82.61
67192;HTU21D;54120;53.504;49.426;2023-03-23T04:14:41;4.57;82.10
67192;HTU21D;54120;53.504;49.426;2023-03-23T04:17:08;4.60;81.97
67192;HTU21D;54120;53.504;49.426;2023-03-23T04:19:37;4.69;81.94
67192;HTU21D;54120;53.504;49.426;2023-03-23T04:22:05;4.80;81.47
67192;HTU21D;54120;53.504;49.426;2023-03-23T04:24:32;4.90;81.02
67192;HTU21D;54120;53.504;49.426;2023-03-23T04:27:00;4.98;80.85
67192;HTU21D;54120;53.504;49.426;2023-03-23T04:29:27;5.10;80.37
67192;HTU21D;54120;53.504;49.426;2023-03-23T04:31:53;5.17;80.24
67192;HTU21D;54120;53.504;49.426;2023-03-23T04:34:22;5.32;79.70
67192;HTU21D;54120;53.504;49.426;2023-03-23T04:36:51;5.37;79.39
67192;HTU21D;54120;53.504;49.426;2023-03-23T04:39:19;5.32;79.67
67192;HTU21D;54120;53.504;49.426;2023-03-23T04:41:45;5.30;79.72
67192;HTU21D;54120;53.504;49.426;2023-03-23T04:44:12;5.27;80.28
67192;HTU21D;54120;53.504;49.426;2023-03-23T04:46:44;5.36;80.07
67192;HTU21D;54120;53.504;49.426;2023-03-23T04:49:15;5.46;79.66
67192;HTU21D;54120;53.504;49.426;2023-03-23T04:51:47;5.47;79.49
67192;HTU21D;54120;53.504;49.426;2023-03-23T04:54:14;5.56;79.11
67192;HTU21D;54120;53.504;49.426;2023-03-23T04:56:40;5.62;78.88
67192;HTU21D;54120;53.504;49.426;2023-03-23T04:59:07;5.65;78.66
67192;HTU21D;54120;53.504;49.426;2023-03-23T05:01:33;5.75;78.26
67192;HTU21D;54120;53.504;49.426;2023-03-23T05:04:03;5.84;77.51
67192;HTU21D;54120;53.504;49.426;2023-03-23T05:06:30;5.93;76.86
67192;HTU21D;54120;53.504;49.426;2023-03-23T05:08:56;5.91;76.89
67192;HTU21D;54120;53.504;49.426;2023-03-23T05:11:22;5.86;77.37
67192;HTU21D;54120;53.504;49.426;2023-03-23T05:13:49;5.92;77.37
67192;HTU21D;54120;53.504;49.426;2023-03-23T05:16:16;6.00;76.49
67192;HTU21D;54120;53.504;49.426;2023-03-23T05:18:42;6.01;76.49
67192;HTU21D;54120;53.504;49.426;2023-03-23T05:21:09;6.09;76.05
67192;HTU21D;54120;53.504;49.426;2023-03-23T05:23:35;6.14;76.02
67192;HTU21D;54120;53.504;49.426;2023-03-23T05:26:02;6.30;75.47
67192;HTU21D;54120;53.504;49.426;2023-03-23T05:28:28;6.43;74.76
67192;HTU21D;54120;53.504;49.426;2023-03-23T05:30:56;6.38;74.87
67192;HTU21D;54120;53.504;49.426;2023-03-23T05:33:23;6.30;75.26
67192;HTU21D;54120;53.504;49.426;2023-03-23T05:35:49;6.28;75.60
67192;HTU21D;54120;53.504;49.426;2023-03-23T05:38:16;6.31;75.44
67192;HTU21D;54120;53.504;49.426;2023-03-23T05:40:42;6.45;75.03
67192;HTU21D;54120;53.504;49.426;2023-03-23T05:43:09;6.54;74.79
67192;HTU21D;54120;53.504;49.426;2023-03-23T05:45:35;6.65;74.39
67192;HTU21D;54120;53.504;49.426;2023-03-23T05:48:02;6.61;74.38
67192;HTU21D;54120;53.504;49.426;2023-03-23T05:50:28;6.70;74.17
67192;HTU21D;54120;53.504;49.426;2023-03-23T05:52:55;6.72;74.07
67192;HTU21D;54120;53.504;49.426;2023-03-23T05:55:21;6.82;73.70
67192;HTU21D;54120;53.504;49.426;2023-03-23T05:57:47;6.75;73.83
67192;HTU21D;54120;53.504;49.426;2023-03-23T06:00:14;6.81;74.05
67192;HTU21D;54120;53.504;49.426;2023-03-23T06:02:41;6.91;73.48
67192;HTU21D;54120;53.504;49.426;2023-03-23T06:05:11;6.97;73.10
67192;HTU21D;54120;53.504;49.426;2023-03-23T06:07:38;7.03;72.87
67192;HTU21D;54120;53.504;49.426;2023-03-23T06:10:07;7.05;72.61
67192;HTU21D;54120;53.504;49.426;2023-03-23T06:12:36;7.11;72.51
67192;HTU21D;54120;53.504;49.426;2023-03-23T06:15:02;7.20;72.53
67192;HTU21D;54120;53.504;49.426;2023-03-23T06:17:30;7.28;72.29
67192;HTU21D;54120;53.504;49.426;2023-03-23T06:19:56;7.42;71.38
67192;HTU21D;54120;53.504;49.426;2023-03-23T06:22:22;7.56;70.82
67192;HTU21D;54120;53.504;49.426;2023-03-23T06:24:49;7.65;70.88
67192;HTU21D;54120;53.504;49.426;2023-03-23T06:27:15;7.90;69.52
67192;HTU21D;54120;53.504;49.426;2023-03-23T06:29:43;7.93;69.22
67192;HTU21D;54120;53.504;49.426;2023-03-23T06:32:10;8.13;68.26
67192;HTU21D;54120;53.504;49.426;2023-03-23T06:34:38;8.33;68.04
67192;HTU21D;54120;53.504;49.426;2023-03-23T06:37:06;8.62;66.62
67192;HTU21D;54120;53.504;49.426;2023-03-23T06:39:32;8.87;64.51
67192;HTU21D;54120;53.504;49.426;2023-03-23T06:41:59;12.69;54.70
67192;HTU21D;54120;53.504;49.426;2023-03-23T06:44:25;16.34;43.15
67192;HTU21D;54120;53.504;49.426;2023-03-23T06:46:51;19.35;35.81
67192;HTU21D;54120;53.504;49.426;2023-03-23T06:49:17;19.36;34.22
67192;HTU21D;54120;53.504;49.426;2023-03-23T06:51:45;19.40;33.77
67192;HTU21D;54120;53.504;49.426;2023-03-23T06:54:11;18.37;33.47
67192;HTU21D;54120;53.504;49.426;2023-03-23T06:56:37;16.75;37.53
67192;HTU21D;54120;53.504;49.426;2023-03-23T06:59:04;17.92;34.79
67192;HTU21D;54120;53.504;49.426;2023-03-23T07:01:30;17.73;35.53
67192;HTU21D;54120;53.504;49.426;2023-03-23T07:03:56;18.74;32.44
67192;HTU21D;54120;53.504;49.426;2023-03-23T07:06:24;19.37;31.38
67192;HTU21D;54120;53.504;49.426;2023-03-23T07:08:51;18.30;32.24
67192;HTU21D;54120;53.504;49.426;2023-03-23T07:11:17;17.43;35.20
67192;HTU21D;54120;53.504;49.426;2023-03-23T07:13:43;17.68;34.23
67192;HTU21D;54120;53.504;49.426;2023-03-23T07:16:11;17.31;34.73
67192;HTU21D;54120;53.504;49.426;2023-03-23T07:18:37;16.51;36.56
67192;HTU21D;54120;53.504;49.426;2023-03-23T07:21:03;15.91;38.60
67192;HTU21D;54120;53.504;49.426;2023-03-23T07:23:30;15.92;38.21
67192;HTU21D;54120;53.504;49.426;2023-03-23T07:25:57;15.63;38.11
67192;HTU21D;54120;53.504;49.426;2023-03-23T07:28:23;15.01;39.24
67192;HTU21D;54120;53.504;49.426;2023-03-23T07:30:50;15.93;37.43
67192;HTU21D;54120;53.504;49.426;2023-03-23T07:33:17;16.58;35.59
67192;HTU21D;54120;53.504;49.426;2023-03-23T07:35:43;16.07;37.11
67192;HTU21D;54120;53.504;49.426;2023-03-23T07:38:09;15.99;36.96
67192;HTU21D;54120;53.504;49.426;2023-03-23T07:40:35;15.41;38.53
67192;HTU21D;54120;53.504;49.426;2023-03-23T07:43:03;14.59;40.31
67192;HTU21D;54120;53.504;49.426;2023-03-23T07:45:29;14.50;40.89
67192;HTU21D;54120;53.504;49.426;2023-03-23T07:47:57;14.85;40.26
67192;HTU21D;54120;53.504;49.426;2023-03-23T07:50:24;14.20;42.27
67192;HTU21D;54120;53.504;49.426;2023-03-23T07:52:54;13.91;42.54
67192;HTU21D;54120;53.504;49.426;2023-03-23T07:55:21;14.20;41.05
67192;HTU21D;54120;53.504;49.426;2023-03-23T07:57:48;13.92;42.05
67192;HTU21D;54120;53.504;49.426;2023-03-23T08:00:18;14.03;43.21
67192;HTU21D;54120;53.504;49.426;2023-03-23T08:02:47;14.26;41.71
67192;HTU21D;54120;53.504;49.426;2023-03-23T08:05:15;13.88;42.70
67192;HTU21D;54120;53.504;49.426;2023-03-23T08:07:41;13.22;43.83
67192;HTU21D;54120;53.504;49.426;2023-03-23T08:10:09;13.36;43.93
67192;HTU21D;54120;53.504;49.426;2023-03-23T08:12:37;13.34;43.29
67192;HTU21D;54120;53.504;49.426;2023-03-23T08:15:07;13.24;43.50
67192;HTU21D;54120;53.504;49.426;2023-03-23T08:17:35;13.08;43.51
67192;HTU21D;54120;53.504;49.426;2023-03-23T08:20:02;12.50;44.25
67192;HTU21D;54120;53.504;49.426;2023-03-23T08:22:35;12.63;43.71
67192;HTU21D;54120;53.504;49.426;2023-03-23T08:25:03;12.42;44.69
67192;HTU21D;54120;53.504;49.426;2023-03-23T08:27:29;12.52;45.18
67192;HTU21D;54120;53.504;49.426;2023-03-23T08:29:56;12.77;44.54
67192;HTU21D;54120;53.504;49.426;2023-03-23T08:32:23;12.91;44.13
67192;HTU21D;54120;53.504;49.426;2023-03-23T08:34:49;12.86;45.83
67192;HTU21D;54120;53.504;49.426;2023-03-23T08:37:17;12.72;45.83
67192;HTU21D;54120;53.504;49.426;2023-03-23T08:39:43;12.43;46.50
67192;HTU21D;54120;53.504;49.426;2023-03-23T08:42:10;12.18;47.95
67192;HTU21D;54120;53.504;49.426;2023-03-23T08:44:37;11.97;48.27
67192;HTU21D;54120;53.504;49.426;2023-03-23T08:47:05;12.03;49.06
67192;HTU21D;54120;53.504;49.426;2023-03-23T08:49:32;12.14;48.02
67192;HTU21D;54120;53.504;49.426;2023-03-23T08:52:00;12.32;47.44
67192;HTU21D;54120;53.504;49.426;2023-03-23T08:54:26;12.48;48.22
67192;HTU21D;54120;53.504;49.426;2023-03-23T08:56:53;12.41;46.86
67192;HTU21D;54120;53.504;49.426;2023-03-23T08:59:19;12.64;46.31
67192;HTU21D;54120;53.504;49.426;2023-03-23T09:01:45;12.90;45.60
67192;HTU21D;54120;53.504;49.426;2023-03-23T09:04:12;13.00;44.64
67192;HTU21D;54120;53.504;49.426;2023-03-23T09:06:40;13.09;45.29
67192;HTU21D;54120;53.504;49.426;2023-03-23T09:09:06;13.14;45.35
67192;HTU21D;54120;53.504;49.426;2023-03-23T09:11:33;13.58;43.96
67192;HTU21D;54120;53.504;49.426;2023-03-23T09:14:01;13.35;44.63
67192;HTU21D;54120;53.504;49.426;2023-03-23T09:16:27;13.56;43.54
67192;HTU21D;54120;53.504;49.426;2023-03-23T09:18:54;13.68;42.71
67192;HTU21D;54120;53.504;49.426;2023-03-23T09:21:23;13.32;42.54
67192;HTU21D;54120;53.504;49.426;2023-03-23T09:23:51;13.17;43.31
67192;HTU21D;54120;53.504;49.426;2023-03-23T09:26:18;13.03;45.09
67192;HTU21D;54120;53.504;49.426;2023-03-23T09:28:44;13.25;43.26
67192;HTU21D;54120;53.504;49.426;2023-03-23T09:31:12;13.14;45.52
67192;HTU21D;54120;53.504;49.426;2023-03-23T09:33:38;12.92;44.57
67192;HTU21D;54120;53.504;49.426;2023-03-23T09:36:05;12.73;45.48
67192;HTU21D;54120;53.504;49.426;2023-03-23T09:38:34;12.43;46.15
67192;HTU21D;54120;53.504;49.426;2023-03-23T09:41:44;12.40;47.26
67192;HTU21D;54120;53.504;49.426;2023-03-23T09:49:21;12.91;45.21
67192;HTU21D;54120;53.504;49.426;2023-03-23T09:51:54;12.57;45.36
67192;HTU21D;54120;53.504;49.426;2023-03-23T09:54:38;12.46;45.03
67192;HTU21D;54120;53.504;49.426;2023-03-23T09:57:16;12.48;46.00
67192;HTU21D;54120;53.504;49.426;2023-03-23T09:59:52;12.52;46.19
67192;HTU21D;54120;53.504;49.426;2023-03-23T10:02:27;12.48;45.89
67192;HTU21D;54120;53.504;49.426;2023-03-23T10:04:56;12.48;45.83
67192;HTU21D;54120;53.504;49.426;2023-03-23T10:07:26;12.53;47.04
67192;HTU21D;54120;53.504;49.426;2023-03-23T10:09:58;12.92;46.85
67192;HTU21D;54120;53.504;49.426;2023-03-23T10:15:27;12.72;46.44
67192;HTU21D;54120;53.504;49.426;2023-03-23T10:25:55;12.96;47.79
67192;HTU21D;54120;53.504;49.426;2023-03-23T10:28:46;12.67;48.82
67192;HTU21D;54120;53.504;49.426;2023-03-23T10:31:22;12.81;47.71
67192;HTU21D;54120;53.504;49.426;2023-03-23T10:33:53;13.20;46.51
67192;HTU21D;54120;53.504;49.426;2023-03-23T10:41:20;12.47;49.12
67192;HTU21D;54120;53.504;49.426;2023-03-23T10:43:47;12.18;50.49
67192;HTU21D;54120;53.504;49.426;2023-03-23T10:48:43;12.01;50.64
67192;HTU21D;54120;53.504;49.426;2023-03-23T10:51:12;11.88;51.69
67192;HTU21D;54120;53.504;49.426;2023-03-23T10:53:49;11.57;52.27
67192;HTU21D;54120;53.504;49.426;2023-03-23T10:56:24;11.52;52.09
67192;HTU21D;54120;53.504;49.426;2023-03-23T10:58:51;11.25;52.87
67192;HTU21D;54120;53.504;49.426;2023-03-23T11:01:20;11.08;53.87
67192;HTU21D;54120;53.504;49.426;2023-03-23T11:03:48;11.32;53.84
67192;HTU21D;54120;53.504;49.426;2023-03-23T11:06:33;11.22;54.82
67192;HTU21D;54120;53.504;49.426;2023-03-23T11:09:16;11.12;55.67
67192;HTU21D;54120;53.504;49.426;2023-03-23T11:11:53;11.10;55.21
67192;HTU21D;54120;53.504;49.426;2023-03-23T11:14:26;10.90;56.32
67192;HTU21D;54120;53.504;49.426;2023-03-23T11:16:58;10.80;57.37
67192;HTU21D;54120;53.504;49.426;2023-03-23T11:19:28;10.87;57.39
67192;HTU21D;54120;53.504;49.426;2023-03-23T11:24:45;10.90;57.58
67192;HTU21D;54120;53.504;49.426;2023-03-23T11:27:13;10.88;57.82
67192;HTU21D;54120;53.504;49.426;2023-03-23T11:29:50;10.83;58.09
67192;HTU21D;54120;53.504;49.426;2023-03-23T11:32:19;10.83;58.16
67192;HTU21D;54120;53.504;49.426;2023-03-23T11:34:52;10.92;58.00
67192;HTU21D;54120;53.504;49.426;2023-03-23T11:37:24;10.93;57.71
67192;HTU21D;54120;53.504;49.426;2023-03-23T11:39:55;10.94;57.56
67192;HTU21D;54120;53.504;49.426;2023-03-23T11:45:35;11.04;56.93
67192;HTU21D;54120;53.504;49.426;2023-03-23T11:51:05;10.89;57.52
67192;HTU21D;54120;53.504;49.426;2023-03-23T11:53:43;11.08;57.47
67192;HTU21D;54120;53.504;49.426;2023-03-23T11:56:22;11.27;56.95
67192;HTU21D;54120;53.504;49.426;2023-03-23T11:58:50;11.18;57.03
67192;HTU21D;54120;53.504;49.426;2023-03-23T12:04:24;11.02;57.85
67192;HTU21D;54120;53.504;49.426;2023-03-23T12:09:52;11.03;57.61
67192;HTU21D;54120;53.504;49.426;2023-03-23T12:15:29;10.89;58.10
67192;HTU21D;54120;53.504;49.426;2023-03-23T12:23:58;10.73;58.47
67192;HTU21D;54120;53.504;49.426;2023-03-23T12:26:30;10.69;58.72
67192;HTU21D;54120;53.504;49.426;2023-03-23T12:32:13;10.63;59.52
67192;HTU21D;54120;53.504;49.426;2023-03-23T12:34:53;10.62;59.70
67192;HTU21D;54120;53.504;49.426;2023-03-23T12:48:00;10.46;60.96
67192;HTU21D;54120;53.504;49.426;2023-03-23T12:51:21;10.33;61.34
67192;HTU21D;54120;53.504;49.426;2023-03-23T12:53:53;10.27;61.84
67192;HTU21D;54120;53.504;49.426;2023-03-23T12:56:27;10.27;62.05
67192;HTU21D;54120;53.504;49.426;2023-03-23T12:59:02;10.37;61.99
67192;HTU21D;54120;53.504;49.426;2023-03-23T13:01:37;10.49;61.60
67192;HTU21D;54120;53.504;49.426;2023-03-23T13:04:11;10.59;61.83
67192;HTU21D;54120;53.504;49.426;2023-03-23T13:06:44;10.70;61.40
67192;HTU21D;54120;53.504;49.426;2023-03-23T13:09:29;10.75;61.17
67192;HTU21D;54120;53.504;49.426;2023-03-23T13:11:58;10.77;61.29
67192;HTU21D;54120;53.504;49.426;2023-03-23T13:14:48;10.81;61.43
67192;HTU21D;54120;53.504;49.426;2023-03-23T13:20:34;10.84;61.58
67192;HTU21D;54120;53.504;49.426;2023-03-23T13:23:28;10.82;61.80
67192;HTU21D;54120;53.504;49.426;2023-03-23T13:26:05;10.86;62.26
67192;HTU21D;54120;53.504;49.426;2023-03-23T13:28:56;10.82;61.94
67192;HTU21D;54120;53.504;49.426;2023-03-23T13:31:29;10.84;62.13
67192;HTU21D;54120;53.504;49.426;2023-03-23T13:34:24;10.92;61.80
67192;HTU21D;54120;53.504;49.426;2023-03-23T13:36:58;10.96;61.64
67192;HTU21D;54120;53.504;49.426;2023-03-23T13:39:30;10.97;61.49
67192;HTU21D;54120;53.504;49.426;2023-03-23T13:57:52;10.74;61.89
67192;HTU21D;54120;53.504;49.426;2023-03-23T14:03:19;10.45;63.15
67192;HTU21D;54120;53.504;49.426;2023-03-23T14:16:42;9.99;65.59
67192;HTU21D;54120;53.504;49.426;2023-03-23T14:19:29;9.94;65.21
67192;HTU21D;54120;53.504;49.426;2023-03-23T14:21:58;9.88;65.47
67192;HTU21D;54120;53.504;49.426;2023-03-23T14:24:33;9.84;65.64
67192;HTU21D;54120;53.504;49.426;2023-03-23T14:29:34;9.66;66.42
67192;HTU21D;54120;53.504;49.426;2023-03-23T14:32:00;9.57;66.49
67192;HTU21D;54120;53.504;49.426;2023-03-23T14:34:31;9.45;67.09
67192;HTU21D;54120;53.504;49.426;2023-03-23T14:36:59;9.31;67.52
67192;HTU21D;54120;53.504;49.426;2023-03-23T14:39:30;9.24;67.69
67192;HTU21D;54120;53.504;49.426;2023-03-23T14:42:03;9.21;67.65
67192;HTU21D;54120;53.504;49.426;2023-03-23T14:44:34;9.16;67.92
67192;HTU21D;54120;53.504;49.426;2023-03-23T14:47:04;9.06;68.19
67192;HTU21D;54120;53.504;49.426;2023-03-23T14:49:37;8.93;68.63
67192;HTU21D;54120;53.504;49.426;2023-03-23T14:54:37;8.64;69.58
67192;HTU21D;54120;53.504;49.426;2023-03-23T14:57:13;8.66;69.76
67192;HTU21D;54120;53.504;49.426;2023-03-23T14:59:44;8.68;69.45
67192;HTU21D;54120;53.504;49.426;2023-03-23T15:02:17;8.66;69.79
67192;HTU21D;54120;53.504;49.426;2023-03-23T15:04:46;8.64;69.79
67192;HTU21D;54120;53.504;49.426;2023-03-23T15:07:14;8.66;69.81
67192;HTU21D;54120;53.504;49.426;2023-03-23T15:09:44;8.63;70.00
67192;HTU21D;54120;53.504;49.426;2023-03-23T15:12:24;8.59;70.10
67192;HTU21D;54120;53.504;49.426;2023-03-23T15:14:54;8.53;70.21
67192;HTU21D;54120;53.504;49.426;2023-03-23T15:17:27;8.49;70.63
67192;HTU21D;54120;53.504;49.426;2023-03-23T15:19:55;8.49;70.68
67192;HTU21D;54120;53.504;49.426;2023-03-23T15:22:26;8.42;70.90
67192;HTU21D;54120;53.504;49.426;2023-03-23T15:25:11;8.33;71.28
67192;HTU21D;54120;53.504;49.426;2023-03-23T15:27:51;8.31;71.45
67192;HTU21D;54120;53.504;49.426;2023-03-23T15:33:13;8.15;71.77
67192;HTU21D;54120;53.504;49.426;2023-03-23T15:35:45;8.08;71.88
67192;HTU21D;54120;53.504;49.426;2023-03-23T15:38:21;8.01;72.30
67192;HTU21D;54120;53.504;49.426;2023-03-23T15:40:57;7.93;72.68
67192;HTU21D;54120;53.504;49.426;2023-03-23T15:43:27;8.02;72.38
67192;HTU21D;54120;53.504;49.426;2023-03-23T15:45:57;7.94;72.45
67192;HTU21D;54120;53.504;49.426;2023-03-23T15:48:29;7.89;72.75
67192;HTU21D;54120;53.504;49.426;2023-03-23T15:50:56;7.84;72.71
67192;HTU21D;54120;53.504;49.426;2023-03-23T15:53:33;7.76;72.92
67192;HTU21D;54120;53.504;49.426;2023-03-23T15:56:03;7.69;73.06
67192;HTU21D;54120;53.504;49.426;2023-03-23T15:58:32;7.67;73.08
67192;HTU21D;54120;53.504;49.426;2023-03-23T16:01:01;7.75;72.78
67192;HTU21D;54120;53.504;49.426;2023-03-23T16:03:42;7.83;72.25
67192;HTU21D;54120;53.504;49.426;2023-03-23T16:06:19;7.81;72.25
67192;HTU21D;54120;53.504;49.426;2023-03-23T16:08:46;7.97;71.80
67192;HTU21D;54120;53.504;49.426;2023-03-23T16:11:16;8.01;71.37
67192;HTU21D;54120;53.504;49.426;2023-03-23T16:13:43;7.91;71.52
67192;HTU21D;54120;53.504;49.426;2023-03-23T16:16:18;7.87;71.96
67192;HTU21D;54120;53.504;49.426;2023-03-23T16:18:46;7.82;71.92
67192;HTU21D;54120;53.504;49.426;2023-03-23T16:21:12;7.89;71.78
67192;HTU21D;54120;53.504;49.426;2023-03-23T16:23:39;7.91;71.31
67192;HTU21D;54120;53.504;49.426;2023-03-23T16:26:06;7.96;71.10
67192;HTU21D;54120;53.504;49.426;2023-03-23T16:28:32;7.96;71.21
67192;HTU21D;54120;53.504;49.426;2023-03-23T16:30:58;8.03;71.01
67192;HTU21D;54120;53.504;49.426;2023-03-23T16:33:25;8.16;70.50
67192;HTU21D;54120;53.504;49.426;2023-03-23T16:35:51;8.16;70.39
67192;HTU21D;54120;53.504;49.426;2023-03-23T16:38:18;8.15;70.77
67192;HTU21D;54120;53.504;49.426;2023-03-23T16:40:45;8.24;70.37
67192;HTU21D;54120;53.504;49.426;2023-03-23T16:43:12;8.31;70.39
67192;HTU21D;54120;53.504;49.426;2023-03-23T16:45:40;8.32;70.31
67192;HTU21D;54120;53.504;49.426;2023-03-23T16:48:07;8.33;70.27
67192;HTU21D;54120;53.504;49.426;2023-03-23T16:50:36;8.32;70.35
67192;HTU21D;54120;53.504;49.426;2023-03-23T16:53:04;8.31;70.33
67192;HTU21D;54120;53.504;49.426;2023-03-23T16:55:33;8.37;70.14
67192;HTU21D;54120;53.504;49.426;2023-03-23T16:57:59;8.34;70.14
67192;HTU21D;54120;53.504;49.426;2023-03-23T17:00:26;8.31;70.13
67192;HTU21D;54120;53.504;49.426;2023-03-23T17:02:54;8.29;70.21
67192;HTU21D;54120;53.504;49.426;2023-03-23T17:05:26;8.24;70.10
67192;HTU21D;54120;53.504;49.426;2023-03-23T17:07:53;8.21;70.13
67192;HTU21D;54120;53.504;49.426;2023-03-23T17:10:25;8.23;70.01
67192;HTU21D;54120;53.504;49.426;2023-03-23T17:12:53;8.19;70.01
67192;HTU21D;54120;53.504;49.426;2023-03-23T17:15:19;8.22;69.93
67192;HTU21D;54120;53.504;49.426;2023-03-23T17:17:46;8.18;70.03
67192;HTU21D;54120;53.504;49.426;2023-03-23T17:20:12;8.19;69.81
67192;HTU21D;54120;53.504;49.426;2023-03-23T17:22:39;8.26;69.61
67192;HTU21D;54120;53.504;49.426;2023-03-23T17:25:06;8.30;69.20
67192;HTU21D;54120;53.504;49.426;2023-03-23T17:27:34;8.29;69.13
67192;HTU21D;54120;53.504;49.426;2023-03-23T17:30:01;8.17;69.70
67192;HTU21D;54120;53.504;49.426;2023-03-23T17:32:28;8.13;69.87
67192;HTU21D;54120;53.504;49.426;2023-03-23T17:34:54;8.11;70.13
67192;HTU21D;54120;53.504;49.426;2023-03-23T17:37:21;8.06;69.97
67192;HTU21D;54120;53.504;49.426;2023-03-23T17:39:48;8.07;69.95